sensor_id;sensor_type;location;lat;lon;timestamp;P1;durP1;ratioP1;P2;durP2;ratioP2
5042;SDS011;2540;50.928;6.856;2024-01-06T00:02:14;7.33;;;3.43;;
5042;SDS011;2540;50.928;6.856;2024-01-06T00:04:39;6.20;;;3.23;;
5042;SDS011;2540;50.928;6.856;2024-01-06T00:07:04;6.87;;;4.40;;
5042;SDS011;2540;50.928;6.856;2024-01-06T00:09:30;8.30;;;4.20;;
5042;SDS011;2540;50.928;6.856;2024-01-06T00:11:55;10.17;;;4.50;;
5042;SDS011;2540;50.928;6.856;2024-01-06T00:14:20;7.40;;;4.60;;
5042;SDS011;2540;50.928;6.856;2024-01-06T00:16:46;6.40;;;4.20;;
5042;SDS011;2540;50.928;6.856;2024-01-06T00:19:11;8.10;;;4.10;;
5042;SDS011;2540;50.928;6.856;2024-01-06T00:21:36;8.30;;;4.37;;
5042;SDS011;2540;50.928;6.856;2024-01-06T00:24:02;6.90;;;4.50;;
5042;SDS011;2540;50.928;6.856;2024-01-06T00:26:27;7.93;;;4.30;;
5042;SDS011;2540;50.928;6.856;2024-01-06T00:28:52;5.33;;;4.60;;
5042;SDS011;2540;50.928;6.856;2024-01-06T00:31:18;6.10;;;4.47;;
5042;SDS011;2540;50.928;6.856;2024-01-06T00:33:44;8.70;;;4.60;;
5042;SDS011;2540;50.928;6.856;2024-01-06T00:36:09;7.63;;;5.17;;
5042;SDS011;2540;50.928;6.856;2024-01-06T00:38:35;6.87;;;5.10;;
5042;SDS011;2540;50.928;6.856;2024-01-06T00:41:00;18.87;;;5.03;;
5042;SDS011;2540;50.928;6.856;2024-01-06T00:43:26;10.20;;;5.80;;
5042;SDS011;2540;50.928;6.856;2024-01-06T00:45:51;7.47;;;5.50;;
5042;SDS011;2540;50.928;6.856;2024-01-06T00:48:17;11.43;;;5.07;;
5042;SDS011;2540;50.928;6.856;2024-01-06T00:50:42;8.50;;;5.60;;
5042;SDS011;2540;50.928;6.856;2024-01-06T00:53:07;10.40;;;5.23;;
5042;SDS011;2540;50.928;6.856;2024-01-06T00:55:33;12.27;;;5.60;;
5042;SDS011;2540;50.928;6.856;2024-01-06T00:57:58;8.30;;;5.53;;
5042;SDS011;2540;50.928;6.856;2024-01-06T01:00:23;12.57;;;7.60;;
5042;SDS011;2540;50.928;6.856;2024-01-06T01:02:49;9.97;;;6.63;;
5042;SDS011;2540;50.928;6.856;2024-01-06T01:05:14;10.83;;;6.67;;
5042;SDS011;2540;50.928;6.856;2024-01-06T01:07:39;12.97;;;7.03;;
5042;SDS011;2540;50.928;6.856;2024-01-06T01:10:05;8.80;;;5.80;;
5042;SDS011;2540;50.928;6.856;2024-01-06T01:12:30;12.40;;;7.43;;
5042;SDS011;2540;50.928;6.856;2024-01-06T01:14:56;10.87;;;6.67;;
5042;SDS011;2540;50.928;6.856;2024-01-06T01:17:21;11.10;;;7.13;;
5042;SDS011;2540;50.928;6.856;2024-01-06T01:19:47;12.27;;;6.80;;
5042;SDS011;2540;50.928;6.856;2024-01-06T01:22:12;13.57;;;7.60;;
5042;SDS011;2540;50.928;6.856;2024-01-06T01:24:37;13.97;;;7.10;;
5042;SDS011;2540;50.928;6.856;2024-01-06T01:27:03;15.53;;;7.87;;
5042;SDS011;2540;50.928;6.856;2024-01-06T01:29:28;12.83;;;8.07;;
5042;SDS011;2540;50.928;6.856;2024-01-06T01:31:54;9.50;;;6.77;;
5042;SDS011;2540;50.928;6.856;2024-01-06T01:34:19;12.50;;;7.97;;
5042;SDS011;2540;50.928;6.856;2024-01-06T01:36:44;11.30;;;7.37;;
5042;SDS011;2540;50.928;6.856;2024-01-06T01:39:10;11.27;;;7.27;;
5042;SDS011;2540;50.928;6.856;2024-01-06T01:41:35;9.60;;;6.67;;
5042;SDS011;2540;50.928;6.856;2024-01-06T01:44:00;10.13;;;7.27;;
5042;SDS011;2540;50.928;6.856;2024-01-06T01:46:26;15.97;;;8.33;;
5042;SDS011;2540;50.928;6.856;2024-01-06T01:48:53;13.43;;;7.57;;
5042;SDS011;2540;50.928;6.856;2024-01-06T01:51:20;12.07;;;7.00;;
5042;SDS011;2540;50.928;6.856;2024-01-06T01:53:45;13.23;;;7.70;;
5042;SDS011;2540;50.928;6.856;2024-01-06T01:56:11;13.07;;;8.07;;
5042;SDS011;2540;50.928;6.856;2024-01-06T01:58:36;13.30;;;7.97;;
5042;SDS011;2540;50.928;6.856;2024-01-06T02:01:02;15.23;;;8.07;;
5042;SDS011;2540;50.928;6.856;2024-01-06T02:03:27;14.57;;;8.70;;
5042;SDS011;2540;50.928;6.856;2024-01-06T02:05:54;13.60;;;8.30;;
5042;SDS011;2540;50.928;6.856;2024-01-06T02:08:20;12.43;;;7.60;;
5042;SDS011;2540;50.928;6.856;2024-01-06T02:10:45;12.73;;;7.73;;
5042;SDS011;2540;50.928;6.856;2024-01-06T02:13:10;12.43;;;7.33;;
5042;SDS011;2540;50.928;6.856;2024-01-06T02:15:36;12.43;;;8.10;;
5042;SDS011;2540;50.928;6.856;2024-01-06T02:18:02;12.00;;;7.63;;
5042;SDS011;2540;50.928;6.856;2024-01-06T02:20:28;15.90;;;8.17;;
5042;SDS011;2540;50.928;6.856;2024-01-06T02:22:55;12.43;;;6.90;;
5042;SDS011;2540;50.928;6.856;2024-01-06T02:25:22;16.47;;;8.37;;
5042;SDS011;2540;50.928;6.856;2024-01-06T02:27:47;14.70;;;8.57;;
5042;SDS011;2540;50.928;6.856;2024-01-06T02:30:12;17.60;;;9.33;;
5042;SDS011;2540;50.928;6.856;2024-01-06T02:32:38;22.90;;;11.37;;
5042;SDS011;2540;50.928;6.856;2024-01-06T02:35:03;17.43;;;11.47;;
5042;SDS011;2540;50.928;6.856;2024-01-06T02:37:28;17.30;;;10.50;;
5042;SDS011;2540;50.928;6.856;2024-01-06T02:39:54;28.47;;;15.30;;
5042;SDS011;2540;50.928;6.856;2024-01-06T02:42:19;23.13;;;13.00;;
5042;SDS011;2540;50.928;6.856;2024-01-06T02:44:44;23.43;;;13.30;;
5042;SDS011;2540;50.928;6.856;2024-01-06T02:47:10;21.80;;;10.20;;
5042;SDS011;2540;50.928;6.856;2024-01-06T02:49:35;17.70;;;9.83;;
5042;SDS011;2540;50.928;6.856;2024-01-06T02:52:00;16.40;;;8.93;;
5042;SDS011;2540;50.928;6.856;2024-01-06T02:54:26;18.90;;;10.20;;
5042;SDS011;2540;50.928;6.856;2024-01-06T02:56:51;20.13;;;9.40;;
5042;SDS011;2540;50.928;6.856;2024-01-06T02:59:16;18.13;;;9.50;;
5042;SDS011;2540;50.928;6.856;2024-01-06T03:01:42;15.20;;;9.53;;
5042;SDS011;2540;50.928;6.856;2024-01-06T03:04:07;28.17;;;10.83;;
5042;SDS011;2540;50.928;6.856;2024-01-06T03:06:33;19.50;;;10.80;;
5042;SDS011;2540;50.928;6.856;2024-01-06T03:08:58;23.83;;;10.87;;
5042;SDS011;2540;50.928;6.856;2024-01-06T03:11:24;20.57;;;11.27;;
5042;SDS011;2540;50.928;6.856;2024-01-06T03:13:49;21.30;;;11.40;;
5042;SDS011;2540;50.928;6.856;2024-01-06T03:16:15;21.73;;;11.60;;
5042;SDS011;2540;50.928;6.856;2024-01-06T03:18:40;26.13;;;12.40;;
5042;SDS011;2540;50.928;6.856;2024-01-06T03:21:05;25.50;;;12.63;;
5042;SDS011;2540;50.928;6.856;2024-01-06T03:23:41;27.60;;;13.10;;
5042;SDS011;2540;50.928;6.856;2024-01-06T03:26:07;28.13;;;13.10;;
5042;SDS011;2540;50.928;6.856;2024-01-06T03:28:32;23.70;;;12.93;;
5042;SDS011;2540;50.928;6.856;2024-01-06T03:30:57;22.83;;;11.40;;
5042;SDS011;2540;50.928;6.856;2024-01-06T03:33:23;22.80;;;12.20;;
5042;SDS011;2540;50.928;6.856;2024-01-06T03:35:48;27.03;;;13.30;;
5042;SDS011;2540;50.928;6.856;2024-01-06T03:38:13;28.07;;;14.23;;
5042;SDS011;2540;50.928;6.856;2024-01-06T03:40:38;27.73;;;14.13;;
5042;SDS011;2540;50.928;6.856;2024-01-06T03:43:04;28.93;;;13.73;;
5042;SDS011;2540;50.928;6.856;2024-01-06T03:45:29;34.13;;;18.10;;
5042;SDS011;2540;50.928;6.856;2024-01-06T03:47:54;37.27;;;17.10;;
5042;SDS011;2540;50.928;6.856;2024-01-06T03:50:20;39.97;;;17.07;;
5042;SDS011;2540;50.928;6.856;2024-01-06T03:52:45;35.00;;;17.53;;
5042;SDS011;2540;50.928;6.856;2024-01-06T03:55:10;34.27;;;16.87;;
5042;SDS011;2540;50.928;6.856;2024-01-06T03:57:36;32.03;;;15.43;;
5042;SDS011;2540;50.928;6.856;2024-01-06T04:00:01;27.97;;;15.33;;
5042;SDS011;2540;50.928;6.856;2024-01-06T04:02:26;35.03;;;15.77;;
5042;SDS011;2540;50.928;6.856;2024-01-06T04:04:52;37.67;;;17.77;;
5042;SDS011;2540;50.928;6.856;2024-01-06T04:07:17;34.37;;;17.40;;
5042;SDS011;2540;50.928;6.856;2024-01-06T04:09:42;36.10;;;18.30;;
5042;SDS011;2540;50.928;6.856;2024-01-06T04:12:08;35.20;;;16.50;;
5042;SDS011;2540;50.928;6.856;2024-01-06T04:14:34;36.57;;;17.30;;
5042;SDS011;2540;50.928;6.856;2024-01-06T04:16:59;40.77;;;17.97;;
5042;SDS011;2540;50.928;6.856;2024-01-06T04:19:24;40.20;;;18.07;;
5042;SDS011;2540;50.928;6.856;2024-01-06T04:21:50;41.93;;;18.70;;
5042;SDS011;2540;50.928;6.856;2024-01-06T04:24:15;39.90;;;18.77;;
5042;SDS011;2540;50.928;6.856;2024-01-06T04:26:40;40.73;;;19.03;;
5042;SDS011;2540;50.928;6.856;2024-01-06T04:29:09;48.93;;;20.60;;
5042;SDS011;2540;50.928;6.856;2024-01-06T04:31:35;42.07;;;19.57;;
5042;SDS011;2540;50.928;6.856;2024-01-06T04:34:00;43.90;;;19.00;;
5042;SDS011;2540;50.928;6.856;2024-01-06T04:36:25;47.60;;;20.60;;
5042;SDS011;2540;50.928;6.856;2024-01-06T04:38:50;41.57;;;18.70;;
5042;SDS011;2540;50.928;6.856;2024-01-06T04:41:16;51.77;;;20.70;;
5042;SDS011;2540;50.928;6.856;2024-01-06T04:43:41;48.33;;;21.10;;
5042;SDS011;2540;50.928;6.856;2024-01-06T04:46:06;49.93;;;20.37;;
5042;SDS011;2540;50.928;6.856;2024-01-06T04:48:32;46.70;;;19.73;;
5042;SDS011;2540;50.928;6.856;2024-01-06T04:50:57;42.30;;;19.13;;
5042;SDS011;2540;50.928;6.856;2024-01-06T04:53:22;46.63;;;20.33;;
5042;SDS011;2540;50.928;6.856;2024-01-06T04:55:48;59.10;;;20.87;;
5042;SDS011;2540;50.928;6.856;2024-01-06T04:58:13;49.17;;;21.20;;
5042;SDS011;2540;50.928;6.856;2024-01-06T05:00:38;52.13;;;19.47;;
5042;SDS011;2540;50.928;6.856;2024-01-06T05:03:04;56.10;;;23.17;;
5042;SDS011;2540;50.928;6.856;2024-01-06T05:05:29;50.83;;;20.47;;
5042;SDS011;2540;50.928;6.856;2024-01-06T05:07:54;47.27;;;20.60;;
5042;SDS011;2540;50.928;6.856;2024-01-06T05:10:20;54.73;;;21.77;;
5042;SDS011;2540;50.928;6.856;2024-01-06T05:12:45;52.33;;;23.20;;
5042;SDS011;2540;50.928;6.856;2024-01-06T05:15:10;50.60;;;19.37;;
5042;SDS011;2540;50.928;6.856;2024-01-06T05:17:36;41.23;;;17.00;;
5042;SDS011;2540;50.928;6.856;2024-01-06T05:20:01;37.53;;;15.87;;
5042;SDS011;2540;50.928;6.856;2024-01-06T05:22:28;29.30;;;12.63;;
5042;SDS011;2540;50.928;6.856;2024-01-06T05:24:54;28.73;;;13.33;;
5042;SDS011;2540;50.928;6.856;2024-01-06T05:27:19;30.30;;;12.20;;
5042;SDS011;2540;50.928;6.856;2024-01-06T05:29:45;29.07;;;11.50;;
5042;SDS011;2540;50.928;6.856;2024-01-06T05:32:10;28.13;;;10.40;;
5042;SDS011;2540;50.928;6.856;2024-01-06T05:34:35;26.07;;;10.67;;
5042;SDS011;2540;50.928;6.856;2024-01-06T05:37:01;30.33;;;9.20;;
5042;SDS011;2540;50.928;6.856;2024-01-06T05:39:26;24.97;;;10.53;;
5042;SDS011;2540;50.928;6.856;2024-01-06T05:41:52;28.10;;;9.93;;
5042;SDS011;2540;50.928;6.856;2024-01-06T05:44:17;30.10;;;11.33;;
5042;SDS011;2540;50.928;6.856;2024-01-06T05:46:42;27.17;;;10.40;;
5042;SDS011;2540;50.928;6.856;2024-01-06T05:49:08;25.80;;;9.97;;
5042;SDS011;2540;50.928;6.856;2024-01-06T05:51:35;25.90;;;10.53;;
5042;SDS011;2540;50.928;6.856;2024-01-06T05:54:00;26.30;;;10.00;;
5042;SDS011;2540;50.928;6.856;2024-01-06T05:56:25;27.60;;;11.10;;
5042;SDS011;2540;50.928;6.856;2024-01-06T05:58:52;24.63;;;9.73;;
5042;SDS011;2540;50.928;6.856;2024-01-06T06:01:18;21.67;;;8.57;;
5042;SDS011;2540;50.928;6.856;2024-01-06T06:03:44;20.23;;;8.90;;
5042;SDS011;2540;50.928;6.856;2024-01-06T06:06:09;19.80;;;7.57;;
5042;SDS011;2540;50.928;6.856;2024-01-06T06:08:35;19.97;;;8.30;;
5042;SDS011;2540;50.928;6.856;2024-01-06T06:11:00;16.30;;;7.40;;
5042;SDS011;2540;50.928;6.856;2024-01-06T06:13:35;20.90;;;8.07;;
5042;SDS011;2540;50.928;6.856;2024-01-06T06:16:01;21.53;;;8.63;;
5042;SDS011;2540;50.928;6.856;2024-01-06T06:18:26;25.27;;;9.50;;
5042;SDS011;2540;50.928;6.856;2024-01-06T06:20:51;19.43;;;8.03;;
5042;SDS011;2540;50.928;6.856;2024-01-06T06:23:16;17.23;;;7.50;;
5042;SDS011;2540;50.928;6.856;2024-01-06T06:25:42;31.77;;;10.90;;
5042;SDS011;2540;50.928;6.856;2024-01-06T06:28:07;25.13;;;9.97;;
5042;SDS011;2540;50.928;6.856;2024-01-06T06:30:33;26.90;;;9.63;;
5042;SDS011;2540;50.928;6.856;2024-01-06T06:32:58;22.57;;;8.40;;
5042;SDS011;2540;50.928;6.856;2024-01-06T06:35:24;22.90;;;9.00;;
5042;SDS011;2540;50.928;6.856;2024-01-06T06:37:49;21.20;;;8.77;;
5042;SDS011;2540;50.928;6.856;2024-01-06T06:40:14;18.47;;;8.37;;
5042;SDS011;2540;50.928;6.856;2024-01-06T06:42:40;23.57;;;8.00;;
5042;SDS011;2540;50.928;6.856;2024-01-06T06:45:05;24.07;;;9.53;;
5042;SDS011;2540;50.928;6.856;2024-01-06T06:47:31;20.17;;;8.50;;
5042;SDS011;2540;50.928;6.856;2024-01-06T06:49:56;25.40;;;9.13;;
5042;SDS011;2540;50.928;6.856;2024-01-06T06:52:21;20.60;;;8.30;;
5042;SDS011;2540;50.928;6.856;2024-01-06T06:54:47;24.10;;;8.97;;
5042;SDS011;2540;50.928;6.856;2024-01-06T06:57:14;26.53;;;9.50;;
5042;SDS011;2540;50.928;6.856;2024-01-06T06:59:39;22.93;;;9.70;;
5042;SDS011;2540;50.928;6.856;2024-01-06T07:02:05;22.03;;;8.90;;
5042;SDS011;2540;50.928;6.856;2024-01-06T07:04:30;19.07;;;8.63;;
5042;SDS011;2540;50.928;6.856;2024-01-06T07:06:56;19.90;;;7.80;;
5042;SDS011;2540;50.928;6.856;2024-01-06T07:09:22;24.07;;;10.13;;
5042;SDS011;2540;50.928;6.856;2024-01-06T07:11:49;25.80;;;10.07;;
5042;SDS011;2540;50.928;6.856;2024-01-06T07:14:14;21.83;;;9.03;;
5042;SDS011;2540;50.928;6.856;2024-01-06T07:16:40;23.53;;;10.10;;
5042;SDS011;2540;50.928;6.856;2024-01-06T07:19:05;24.20;;;9.50;;
5042;SDS011;2540;50.928;6.856;2024-01-06T07:21:30;25.40;;;9.20;;
5042;SDS011;2540;50.928;6.856;2024-01-06T07:23:56;21.87;;;9.47;;
5042;SDS011;2540;50.928;6.856;2024-01-06T07:26:21;23.33;;;9.83;;
5042;SDS011;2540;50.928;6.856;2024-01-06T07:28:47;22.47;;;10.57;;
5042;SDS011;2540;50.928;6.856;2024-01-06T07:31:12;24.57;;;9.60;;
5042;SDS011;2540;50.928;6.856;2024-01-06T07:33:38;22.80;;;9.53;;
5042;SDS011;2540;50.928;6.856;2024-01-06T07:36:04;21.93;;;9.73;;
5042;SDS011;2540;50.928;6.856;2024-01-06T07:38:30;26.83;;;10.50;;
5042;SDS011;2540;50.928;6.856;2024-01-06T07:40:56;28.43;;;10.43;;
5042;SDS011;2540;50.928;6.856;2024-01-06T07:43:21;24.80;;;10.33;;
5042;SDS011;2540;50.928;6.856;2024-01-06T07:45:46;24.00;;;10.87;;
5042;SDS011;2540;50.928;6.856;2024-01-06T07:48:13;22.63;;;10.43;;
5042;SDS011;2540;50.928;6.856;2024-01-06T07:50:38;22.73;;;9.47;;
5042;SDS011;2540;50.928;6.856;2024-01-06T07:53:03;24.77;;;9.70;;
5042;SDS011;2540;50.928;6.856;2024-01-06T07:55:29;27.70;;;10.40;;
5042;SDS011;2540;50.928;6.856;2024-01-06T07:57:54;28.00;;;11.53;;
5042;SDS011;2540;50.928;6.856;2024-01-06T08:00:20;27.53;;;11.10;;
5042;SDS011;2540;50.928;6.856;2024-01-06T08:02:45;25.17;;;10.00;;
5042;SDS011;2540;50.928;6.856;2024-01-06T08:05:10;26.67;;;10.30;;
5042;SDS011;2540;50.928;6.856;2024-01-06T08:07:36;22.93;;;11.30;;
5042;SDS011;2540;50.928;6.856;2024-01-06T08:10:01;40.57;;;14.60;;
5042;SDS011;2540;50.928;6.856;2024-01-06T08:12:29;26.37;;;10.77;;
5042;SDS011;2540;50.928;6.856;2024-01-06T08:14:55;24.20;;;10.60;;
5042;SDS011;2540;50.928;6.856;2024-01-06T08:17:20;28.30;;;10.70;;
5042;SDS011;2540;50.928;6.856;2024-01-06T08:19:46;29.90;;;9.70;;
5042;SDS011;2540;50.928;6.856;2024-01-06T08:22:14;24.13;;;11.50;;
5042;SDS011;2540;50.928;6.856;2024-01-06T08:24:39;25.23;;;11.10;;
5042;SDS011;2540;50.928;6.856;2024-01-06T08:27:05;23.63;;;10.97;;
5042;SDS011;2540;50.928;6.856;2024-01-06T08:29:30;27.67;;;11.07;;
5042;SDS011;2540;50.928;6.856;2024-01-06T08:31:56;29.07;;;11.60;;
5042;SDS011;2540;50.928;6.856;2024-01-06T08:34:21;25.73;;;11.00;;
5042;SDS011;2540;50.928;6.856;2024-01-06T08:36:46;26.90;;;10.80;;
5042;SDS011;2540;50.928;6.856;2024-01-06T08:39:12;24.40;;;11.00;;
5042;SDS011;2540;50.928;6.856;2024-01-06T08:41:37;26.70;;;10.00;;
5042;SDS011;2540;50.928;6.856;2024-01-06T08:44:03;26.50;;;10.10;;
5042;SDS011;2540;50.928;6.856;2024-01-06T08:46:29;24.50;;;10.40;;
5042;SDS011;2540;50.928;6.856;2024-01-06T08:48:55;23.90;;;10.40;;
5042;SDS011;2540;50.928;6.856;2024-01-06T08:51:21;23.47;;;9.80;;
5042;SDS011;2540;50.928;6.856;2024-01-06T08:53:46;33.37;;;10.80;;
5042;SDS011;2540;50.928;6.856;2024-01-06T08:56:12;26.20;;;10.97;;
5042;SDS011;2540;50.928;6.856;2024-01-06T08:58:37;25.10;;;10.40;;
5042;SDS011;2540;50.928;6.856;2024-01-06T09:01:02;26.10;;;10.17;;
5042;SDS011;2540;50.928;6.856;2024-01-06T09:03:28;25.00;;;10.50;;
5042;SDS011;2540;50.928;6.856;2024-01-06T09:05:54;22.20;;;10.07;;
5042;SDS011;2540;50.928;6.856;2024-01-06T09:08:20;26.77;;;11.23;;
5042;SDS011;2540;50.928;6.856;2024-01-06T09:10:46;28.13;;;10.30;;
5042;SDS011;2540;50.928;6.856;2024-01-06T09:13:11;25.13;;;10.43;;
5042;SDS011;2540;50.928;6.856;2024-01-06T09:15:36;26.00;;;11.03;;
5042;SDS011;2540;50.928;6.856;2024-01-06T09:18:02;27.77;;;11.13;;
5042;SDS011;2540;50.928;6.856;2024-01-06T09:20:27;28.47;;;11.70;;
5042;SDS011;2540;50.928;6.856;2024-01-06T09:22:53;23.30;;;9.70;;
5042;SDS011;2540;50.928;6.856;2024-01-06T09:25:18;22.97;;;9.40;;
5042;SDS011;2540;50.928;6.856;2024-01-06T09:27:44;25.60;;;11.80;;
5042;SDS011;2540;50.928;6.856;2024-01-06T09:30:09;27.30;;;11.67;;
5042;SDS011;2540;50.928;6.856;2024-01-06T09:32:35;26.70;;;11.00;;
5042;SDS011;2540;50.928;6.856;2024-01-06T09:35:00;27.03;;;10.43;;
5042;SDS011;2540;50.928;6.856;2024-01-06T09:37:25;25.17;;;9.93;;
5042;SDS011;2540;50.928;6.856;2024-01-06T09:39:51;24.37;;;11.33;;
5042;SDS011;2540;50.928;6.856;2024-01-06T09:42:16;18.63;;;9.27;;
5042;SDS011;2540;50.928;6.856;2024-01-06T09:44:42;22.03;;;9.83;;
5042;SDS011;2540;50.928;6.856;2024-01-06T09:47:07;19.87;;;9.70;;
5042;SDS011;2540;50.928;6.856;2024-01-06T09:49:35;19.37;;;9.30;;
5042;SDS011;2540;50.928;6.856;2024-01-06T09:52:04;22.27;;;10.30;;
5042;SDS011;2540;50.928;6.856;2024-01-06T09:54:30;21.60;;;8.90;;
5042;SDS011;2540;50.928;6.856;2024-01-06T09:56:58;20.17;;;10.27;;
5042;SDS011;2540;50.928;6.856;2024-01-06T09:59:25;25.07;;;9.77;;
5042;SDS011;2540;50.928;6.856;2024-01-06T10:01:50;23.67;;;10.37;;
5042;SDS011;2540;50.928;6.856;2024-01-06T10:04:17;29.50;;;8.37;;
5042;SDS011;2540;50.928;6.856;2024-01-06T10:06:43;21.10;;;8.93;;
5042;SDS011;2540;50.928;6.856;2024-01-06T10:09:08;18.40;;;8.57;;
5042;SDS011;2540;50.928;6.856;2024-01-06T10:11:35;14.53;;;7.07;;
5042;SDS011;2540;50.928;6.856;2024-01-06T10:14:01;18.33;;;7.50;;
5042;SDS011;2540;50.928;6.856;2024-01-06T10:16:28;20.30;;;9.10;;
5042;SDS011;2540;50.928;6.856;2024-01-06T10:18:53;20.60;;;8.60;;
5042;SDS011;2540;50.928;6.856;2024-01-06T10:21:19;17.70;;;7.97;;
5042;SDS011;2540;50.928;6.856;2024-01-06T10:23:45;16.80;;;7.47;;
5042;SDS011;2540;50.928;6.856;2024-01-06T10:26:14;20.70;;;8.50;;
5042;SDS011;2540;50.928;6.856;2024-01-06T10:28:39;18.20;;;8.57;;
5042;SDS011;2540;50.928;6.856;2024-01-06T10:31:07;13.93;;;7.40;;
5042;SDS011;2540;50.928;6.856;2024-01-06T10:33:33;17.40;;;7.73;;
5042;SDS011;2540;50.928;6.856;2024-01-06T10:35:58;21.30;;;9.67;;
5042;SDS011;2540;50.928;6.856;2024-01-06T10:38:25;16.63;;;7.40;;
5042;SDS011;2540;50.928;6.856;2024-01-06T10:41:00;18.37;;;7.60;;
5042;SDS011;2540;50.928;6.856;2024-01-06T10:43:31;24.00;;;9.37;;
5042;SDS011;2540;50.928;6.856;2024-01-06T10:46:02;18.60;;;8.00;;
5042;SDS011;2540;50.928;6.856;2024-01-06T10:48:30;19.70;;;7.60;;
5042;SDS011;2540;50.928;6.856;2024-01-06T10:50:57;17.20;;;8.90;;
5042;SDS011;2540;50.928;6.856;2024-01-06T10:53:24;17.20;;;7.97;;
5042;SDS011;2540;50.928;6.856;2024-01-06T10:55:51;21.93;;;7.80;;
5042;SDS011;2540;50.928;6.856;2024-01-06T10:58:17;17.90;;;7.90;;
5042;SDS011;2540;50.928;6.856;2024-01-06T11:00:43;19.20;;;8.80;;
5042;SDS011;2540;50.928;6.856;2024-01-06T11:03:09;20.67;;;8.10;;
5042;SDS011;2540;50.928;6.856;2024-01-06T11:05:35;18.70;;;7.33;;
5042;SDS011;2540;50.928;6.856;2024-01-06T11:08:01;17.53;;;7.77;;
5042;SDS011;2540;50.928;6.856;2024-01-06T11:10:26;18.73;;;8.37;;
5042;SDS011;2540;50.928;6.856;2024-01-06T11:15:43;16.33;;;7.90;;
5042;SDS011;2540;50.928;6.856;2024-01-06T11:23:39;24.53;;;9.37;;
5042;SDS011;2540;50.928;6.856;2024-01-06T11:26:09;21.00;;;8.73;;
5042;SDS011;2540;50.928;6.856;2024-01-06T11:28:44;20.33;;;9.17;;
5042;SDS011;2540;50.928;6.856;2024-01-06T11:31:13;19.83;;;8.90;;
5042;SDS011;2540;50.928;6.856;2024-01-06T11:33:45;22.47;;;10.40;;
5042;SDS011;2540;50.928;6.856;2024-01-06T11:36:14;19.60;;;8.70;;
5042;SDS011;2540;50.928;6.856;2024-01-06T11:38:40;21.13;;;9.10;;
5042;SDS011;2540;50.928;6.856;2024-01-06T11:41:08;18.03;;;8.37;;
5042;SDS011;2540;50.928;6.856;2024-01-06T11:43:36;17.33;;;8.17;;
5042;SDS011;2540;50.928;6.856;2024-01-06T11:46:02;19.67;;;9.07;;
5042;SDS011;2540;50.928;6.856;2024-01-06T11:48:31;18.97;;;8.97;;
5042;SDS011;2540;50.928;6.856;2024-01-06T11:50:58;20.73;;;9.10;;
5042;SDS011;2540;50.928;6.856;2024-01-06T11:53:23;16.87;;;9.00;;
5042;SDS011;2540;50.928;6.856;2024-01-06T11:55:51;19.40;;;7.50;;
5042;SDS011;2540;50.928;6.856;2024-01-06T11:58:17;19.10;;;8.40;;
5042;SDS011;2540;50.928;6.856;2024-01-06T12:00:42;22.00;;;9.20;;
5042;SDS011;2540;50.928;6.856;2024-01-06T12:03:08;18.77;;;8.40;;
5042;SDS011;2540;50.928;6.856;2024-01-06T12:05:33;16.83;;;8.60;;
5042;SDS011;2540;50.928;6.856;2024-01-06T12:07:59;19.13;;;8.73;;
5042;SDS011;2540;50.928;6.856;2024-01-06T12:10:26;16.27;;;8.40;;
5042;SDS011;2540;50.928;6.856;2024-01-06T12:15:25;19.73;;;8.63;;
5042;SDS011;2540;50.928;6.856;2024-01-06T12:17:50;21.80;;;9.30;;
5042;SDS011;2540;50.928;6.856;2024-01-06T12:20:16;22.00;;;10.00;;
5042;SDS011;2540;50.928;6.856;2024-01-06T12:22:41;18.40;;;9.57;;
5042;SDS011;2540;50.928;6.856;2024-01-06T12:25:07;26.93;;;10.80;;
5042;SDS011;2540;50.928;6.856;2024-01-06T12:27:34;20.53;;;9.37;;
5042;SDS011;2540;50.928;6.856;2024-01-06T12:29:59;24.07;;;10.20;;
5042;SDS011;2540;50.928;6.856;2024-01-06T12:32:25;22.30;;;10.73;;
5042;SDS011;2540;50.928;6.856;2024-01-06T12:34:50;19.50;;;9.30;;
5042;SDS011;2540;50.928;6.856;2024-01-06T12:37:16;22.50;;;9.37;;
5042;SDS011;2540;50.928;6.856;2024-01-06T12:39:42;26.23;;;10.80;;
5042;SDS011;2540;50.928;6.856;2024-01-06T12:42:10;23.50;;;9.83;;
5042;SDS011;2540;50.928;6.856;2024-01-06T12:44:35;23.00;;;9.50;;
5042;SDS011;2540;50.928;6.856;2024-01-06T12:47:03;23.17;;;10.83;;
5042;SDS011;2540;50.928;6.856;2024-01-06T12:49:29;24.43;;;10.10;;
5042;SDS011;2540;50.928;6.856;2024-01-06T12:51:54;24.80;;;11.40;;
5042;SDS011;2540;50.928;6.856;2024-01-06T12:54:20;23.10;;;10.37;;
5042;SDS011;2540;50.928;6.856;2024-01-06T12:56:45;23.63;;;10.10;;
5042;SDS011;2540;50.928;6.856;2024-01-06T12:59:10;25.50;;;11.40;;
5042;SDS011;2540;50.928;6.856;2024-01-06T13:01:36;22.70;;;10.30;;
5042;SDS011;2540;50.928;6.856;2024-01-06T13:04:01;29.23;;;12.80;;
5042;SDS011;2540;50.928;6.856;2024-01-06T13:06:27;26.03;;;10.87;;
5042;SDS011;2540;50.928;6.856;2024-01-06T13:08:52;25.47;;;10.80;;
5042;SDS011;2540;50.928;6.856;2024-01-06T13:11:18;29.17;;;10.80;;
5042;SDS011;2540;50.928;6.856;2024-01-06T13:13:44;33.30;;;12.50;;
5042;SDS011;2540;50.928;6.856;2024-01-06T13:16:09;28.47;;;12.47;;
5042;SDS011;2540;50.928;6.856;2024-01-06T13:18:34;37.13;;;14.37;;
5042;SDS011;2540;50.928;6.856;2024-01-06T13:21:00;33.13;;;12.83;;
5042;SDS011;2540;50.928;6.856;2024-01-06T13:23:26;29.97;;;12.93;;
5042;SDS011;2540;50.928;6.856;2024-01-06T13:25:52;36.37;;;13.07;;
5042;SDS011;2540;50.928;6.856;2024-01-06T13:30:47;36.97;;;13.90;;
5042;SDS011;2540;50.928;6.856;2024-01-06T13:33:14;32.67;;;13.17;;
5042;SDS011;2540;50.928;6.856;2024-01-06T13:35:39;28.90;;;12.03;;
5042;SDS011;2540;50.928;6.856;2024-01-06T13:38:05;26.93;;;11.97;;
5042;SDS011;2540;50.928;6.856;2024-01-06T13:40:30;32.90;;;11.80;;
5042;SDS011;2540;50.928;6.856;2024-01-06T13:42:56;31.13;;;13.17;;
5042;SDS011;2540;50.928;6.856;2024-01-06T13:45:21;28.73;;;11.67;;
5042;SDS011;2540;50.928;6.856;2024-01-06T13:47:47;26.03;;;10.50;;
5042;SDS011;2540;50.928;6.856;2024-01-06T13:50:12;35.40;;;13.87;;
5042;SDS011;2540;50.928;6.856;2024-01-06T13:52:39;35.63;;;13.03;;
5042;SDS011;2540;50.928;6.856;2024-01-06T13:55:05;35.67;;;13.90;;
5042;SDS011;2540;50.928;6.856;2024-01-06T13:57:31;37.00;;;12.50;;
5042;SDS011;2540;50.928;6.856;2024-01-06T13:59:56;41.87;;;15.40;;
5042;SDS011;2540;50.928;6.856;2024-01-06T14:02:22;36.83;;;15.77;;
5042;SDS011;2540;50.928;6.856;2024-01-06T14:04:48;36.90;;;14.07;;
5042;SDS011;2540;50.928;6.856;2024-01-06T14:07:13;34.90;;;13.40;;
5042;SDS011;2540;50.928;6.856;2024-01-06T14:09:39;38.00;;;14.67;;
5042;SDS011;2540;50.928;6.856;2024-01-06T14:12:04;32.17;;;14.03;;
5042;SDS011;2540;50.928;6.856;2024-01-06T14:14:31;38.13;;;15.30;;
5042;SDS011;2540;50.928;6.856;2024-01-06T14:16:57;30.50;;;12.73;;
5042;SDS011;2540;50.928;6.856;2024-01-06T14:19:22;34.20;;;14.00;;
5042;SDS011;2540;50.928;6.856;2024-01-06T14:21:48;35.60;;;15.97;;
5042;SDS011;2540;50.928;6.856;2024-01-06T14:24:15;36.13;;;15.87;;
5042;SDS011;2540;50.928;6.856;2024-01-06T14:26:43;40.10;;;13.90;;
5042;SDS011;2540;50.928;6.856;2024-01-06T14:29:09;32.67;;;13.67;;
5042;SDS011;2540;50.928;6.856;2024-01-06T14:31:34;33.40;;;13.33;;
5042;SDS011;2540;50.928;6.856;2024-01-06T14:33:59;36.00;;;15.10;;
5042;SDS011;2540;50.928;6.856;2024-01-06T14:36:25;34.40;;;14.17;;
5042;SDS011;2540;50.928;6.856;2024-01-06T14:38:50;39.33;;;15.03;;
5042;SDS011;2540;50.928;6.856;2024-01-06T14:41:16;30.80;;;12.87;;
5042;SDS011;2540;50.928;6.856;2024-01-06T14:43:42;38.53;;;14.80;;
5042;SDS011;2540;50.928;6.856;2024-01-06T14:46:07;44.60;;;15.50;;
5042;SDS011;2540;50.928;6.856;2024-01-06T14:48:32;39.47;;;15.23;;
5042;SDS011;2540;50.928;6.856;2024-01-06T14:50:58;37.70;;;15.53;;
5042;SDS011;2540;50.928;6.856;2024-01-06T14:53:23;35.27;;;15.90;;
5042;SDS011;2540;50.928;6.856;2024-01-06T14:55:48;40.67;;;15.13;;
5042;SDS011;2540;50.928;6.856;2024-01-06T14:58:14;42.80;;;16.20;;
5042;SDS011;2540;50.928;6.856;2024-01-06T15:00:39;39.97;;;15.70;;